sensor_id;sensor_type;location;lat;lon;timestamp;pressure;altitude;pressure_sealevel;temperature;humidity
9784;BME280;4931;44.874;-1.092;2024-03-08T00:00:11;99942.09;;;10.08;100.00
9784;BME280;4931;44.874;-1.092;2024-03-08T00:02:41;99938.47;;;10.12;100.00
9784;BME280;4931;44.874;-1.092;2024-03-08T00:05:08;99938.47;;;10.12;100.00
9784;BME280;4931;44.874;-1.092;2024-03-08T00:07:42;99932.16;;;10.12;100.00
9784;BME280;4931;44.874;-1.092;2024-03-08T00:10:09;99933.13;;;10.02;100.00
9784;BME280;4931;44.874;-1.092;2024-03-08T00:12:42;99931.50;;;10.01;100.00
9784;BME280;4931;44.874;-1.092;2024-03-08T00:15:15;99942.47;;;10.01;100.00
9784;BME280;4931;44.874;-1.092;2024-03-08T00:17:41;99941.06;;;10.04;100.00
9784;BME280;4931;44.874;-1.092;2024-03-08T00:20:07;99938.00;;;10.05;100.00
9784;BME280;4931;44.874;-1.092;2024-03-08T00:22:39;99929.56;;;10.02;100.00
9784;BME280;4931;44.874;-1.092;2024-03-08T00:25:06;99926.81;;;10.02;100.00
9784;BME280;4931;44.874;-1.092;2024-03-08T00:27:36;99913.97;;;10.02;100.00
9784;BME280;4931;44.874;-1.092;2024-03-08T00:30:02;99923.66;;;9.94;100.00
9784;BME280;4931;44.874;-1.092;2024-03-08T00:32:27;99903.94;;;9.92;100.00
9784;BME280;4931;44.874;-1.092;2024-03-08T00:34:53;99900.84;;;9.99;100.00
9784;BME280;4931;44.874;-1.092;2024-03-08T00:37:22;99914.22;;;10.01;100.00
9784;BME280;4931;44.874;-1.092;2024-03-08T00:39:48;99905.88;;;9.92;100.00
9784;BME280;4931;44.874;-1.092;2024-03-08T00:42:15;99908.56;;;9.97;100.00
9784;BME280;4931;44.874;-1.092;2024-03-08T00:44:41;99908.03;;;9.95;100.00
9784;BME280;4931;44.874;-1.092;2024-03-08T00:47:06;99906.47;;;9.89;100.00
9784;BME280;4931;44.874;-1.092;2024-03-08T00:49:32;99912.16;;;9.92;100.00
9784;BME280;4931;44.874;-1.092;2024-03-08T00:51:57;99908.09;;;9.90;100.00
9784;BME280;4931;44.874;-1.092;2024-03-08T00:54:23;99901.59;;;9.86;100.00
9784;BME280;4931;44.874;-1.092;2024-03-08T00:56:48;99911.50;;;9.82;100.00
9784;BME280;4931;44.874;-1.092;2024-03-08T00:59:14;99928.38;;;9.89;100.00
9784;BME280;4931;44.874;-1.092;2024-03-08T01:01:40;99921.34;;;9.83;100.00
9784;BME280;4931;44.874;-1.092;2024-03-08T01:04:06;99926.91;;;9.77;100.00
9784;BME280;4931;44.874;-1.092;2024-03-08T01:06:33;99933.19;;;9.78;100.00
9784;BME280;4931;44.874;-1.092;2024-03-08T01:08:59;99932.94;;;9.74;100.00
9784;BME280;4931;44.874;-1.092;2024-03-08T01:11:24;99940.91;;;9.76;100.00
9784;BME280;4931;44.874;-1.092;2024-03-08T01:13:50;99926.44;;;9.70;100.00
9784;BME280;4931;44.874;-1.092;2024-03-08T01:16:16;99925.34;;;9.71;100.00
9784;BME280;4931;44.874;-1.092;2024-03-08T01:18:43;99920.16;;;9.70;100.00
9784;BME280;4931;44.874;-1.092;2024-03-08T01:21:08;99921.09;;;9.60;100.00
9784;BME280;4931;44.874;-1.092;2024-03-08T01:23:34;99932.94;;;9.74;100.00
9784;BME280;4931;44.874;-1.092;2024-03-08T01:26:00;99917.72;;;9.68;100.00
9784;BME280;4931;44.874;-1.092;2024-03-08T01:28:27;99912.81;;;9.65;100.00
9784;BME280;4931;44.874;-1.092;2024-03-08T01:30:53;99916.88;;;9.68;100.00
9784;BME280;4931;44.874;-1.092;2024-03-08T01:33:25;99917.13;;;9.71;100.00
9784;BME280;4931;44.874;-1.092;2024-03-08T01:35:53;99911.63;;;9.71;100.00
9784;BME280;4931;44.874;-1.092;2024-03-08T01:38:20;99914.31;;;9.76;100.00
9784;BME280;4931;44.874;-1.092;2024-03-08T01:40:49;99916.53;;;9.74;100.00
9784;BME280;4931;44.874;-1.092;2024-03-08T01:43:22;99921.06;;;9.84;100.00
9784;BME280;4931;44.874;-1.092;2024-03-08T01:45:48;99914.16;;;10.06;100.00
9784;BME280;4931;44.874;-1.092;2024-03-08T01:48:17;99901.66;;;10.00;100.00
9784;BME280;4931;44.874;-1.092;2024-03-08T01:50:43;99892.31;;;9.82;100.00
9784;BME280;4931;44.874;-1.092;2024-03-08T01:53:10;99891.72;;;9.85;100.00
9784;BME280;4931;44.874;-1.092;2024-03-08T01:55:38;99883.44;;;9.90;100.00
9784;BME280;4931;44.874;-1.092;2024-03-08T01:58:05;99877.16;;;9.89;100.00
9784;BME280;4931;44.874;-1.092;2024-03-08T02:00:32;99873.97;;;9.82;100.00
9784;BME280;4931;44.874;-1.092;2024-03-08T02:02:59;99875.72;;;9.73;100.00
9784;BME280;4931;44.874;-1.092;2024-03-08T02:05:25;99879.38;;;9.68;100.00
9784;BME280;4931;44.874;-1.092;2024-03-08T02:07:51;99887.06;;;9.66;100.00
9784;BME280;4931;44.874;-1.092;2024-03-08T02:10:17;99888.31;;;9.55;100.00
9784;BME280;4931;44.874;-1.092;2024-03-08T02:12:42;99903.25;;;9.43;100.00
9784;BME280;4931;44.874;-1.092;2024-03-08T02:15:08;99925.66;;;9.45;100.00
9784;BME280;4931;44.874;-1.092;2024-03-08T02:17:34;99925.59;;;9.51;100.00
9784;BME280;4931;44.874;-1.092;2024-03-08T02:19:59;99934.41;;;9.47;100.00
9784;BME280;4931;44.874;-1.092;2024-03-08T02:22:30;99943.16;;;9.50;100.00
9784;BME280;4931;44.874;-1.092;2024-03-08T02:24:56;99940.00;;;9.37;100.00
9784;BME280;4931;44.874;-1.092;2024-03-08T02:27:25;99939.19;;;9.37;100.00
9784;BME280;4931;44.874;-1.092;2024-03-08T02:29:55;99938.41;;;9.31;100.00
9784;BME280;4931;44.874;-1.092;2024-03-08T02:32:24;99940.09;;;9.27;100.00
9784;BME280;4931;44.874;-1.092;2024-03-08T02:34:50;99935.22;;;9.24;100.00
9784;BME280;4931;44.874;-1.092;2024-03-08T02:37:16;99925.03;;;9.29;100.00
9784;BME280;4931;44.874;-1.092;2024-03-08T02:39:42;99917.66;;;9.30;100.00
9784;BME280;4931;44.874;-1.092;2024-03-08T02:42:08;99914.00;;;9.35;100.00
9784;BME280;4931;44.874;-1.092;2024-03-08T02:44:33;99896.84;;;9.29;100.00
9784;BME280;4931;44.874;-1.092;2024-03-08T02:46:59;99904.25;;;9.28;100.00
9784;BME280;4931;44.874;-1.092;2024-03-08T02:49:25;99907.78;;;9.29;100.00
9784;BME280;4931;44.874;-1.092;2024-03-08T02:51:55;99907.19;;;9.32;100.00
9784;BME280;4931;44.874;-1.092;2024-03-08T02:54:22;99903.47;;;9.23;100.00
9784;BME280;4931;44.874;-1.092;2024-03-08T02:56:49;99886.41;;;9.31;100.00
9784;BME280;4931;44.874;-1.092;2024-03-08T02:59:17;99892.47;;;9.28;100.00
9784;BME280;4931;44.874;-1.092;2024-03-08T03:01:43;99891.38;;;9.29;100.00
9784;BME280;4931;44.874;-1.092;2024-03-08T03:04:09;99884.91;;;9.20;100.00
9784;BME280;4931;44.874;-1.092;2024-03-08T03:06:34;99878.34;;;9.21;100.00
9784;BME280;4931;44.874;-1.092;2024-03-08T03:09:01;99884.31;;;9.23;100.00
9784;BME280;4931;44.874;-1.092;2024-03-08T03:11:26;99891.56;;;9.13;100.00
9784;BME280;4931;44.874;-1.092;2024-03-08T03:13:52;99895.69;;;9.11;100.00
9784;BME280;4931;44.874;-1.092;2024-03-08T03:16:21;99897.31;;;9.12;100.00
9784;BME280;4931;44.874;-1.092;2024-03-08T03:18:47;99897.03;;;9.13;100.00
9784;BME280;4931;44.874;-1.092;2024-03-08T03:21:13;99894.22;;;9.19;100.00
9784;BME280;4931;44.874;-1.092;2024-03-08T03:23:42;99891.00;;;9.17;100.00
9784;BME280;4931;44.874;-1.092;2024-03-08T03:26:08;99893.19;;;9.14;100.00
9784;BME280;4931;44.874;-1.092;2024-03-08T03:28:37;99899.06;;;9.03;100.00
9784;BME280;4931;44.874;-1.092;2024-03-08T03:31:06;99902.00;;;9.11;100.00
9784;BME280;4931;44.874;-1.092;2024-03-08T03:33:32;99895.38;;;9.12;100.00
9784;BME280;4931;44.874;-1.092;2024-03-08T03:35:59;99879.78;;;8.89;100.00
9784;BME280;4931;44.874;-1.092;2024-03-08T03:38:26;99886.19;;;9.03;100.00
9784;BME280;4931;44.874;-1.092;2024-03-08T03:40:53;99879.56;;;9.09;100.00
9784;BME280;4931;44.874;-1.092;2024-03-08T03:43:23;99886.03;;;9.19;100.00
9784;BME280;4931;44.874;-1.092;2024-03-08T03:45:48;99874.72;;;9.25;100.00
9784;BME280;4931;44.874;-1.092;2024-03-08T03:48:14;99873.13;;;9.19;100.00
9784;BME280;4931;44.874;-1.092;2024-03-08T03:50:39;99858.16;;;9.17;100.00
9784;BME280;4931;44.874;-1.092;2024-03-08T03:53:05;99843.34;;;9.18;100.00
9784;BME280;4931;44.874;-1.092;2024-03-08T03:55:33;99851.84;;;9.16;100.00
9784;BME280;4931;44.874;-1.092;2024-03-08T03:57:59;99855.91;;;9.19;100.00
9784;BME280;4931;44.874;-1.092;2024-03-08T04:00:26;99853.19;;;9.19;100.00
9784;BME280;4931;44.874;-1.092;2024-03-08T04:02:52;99860.34;;;9.14;100.00
9784;BME280;4931;44.874;-1.092;2024-03-08T04:05:18;99856.03;;;9.08;100.00
9784;BME280;4931;44.874;-1.092;2024-03-08T04:07:43;99845.56;;;9.16;100.00
9784;BME280;4931;44.874;-1.092;2024-03-08T04:10:11;99844.38;;;9.22;100.00
9784;BME280;4931;44.874;-1.092;2024-03-08T04:12:37;99839.50;;;9.19;100.00
9784;BME280;4931;44.874;-1.092;2024-03-08T04:15:03;99834.63;;;9.16;100.00
9784;BME280;4931;44.874;-1.092;2024-03-08T04:17:30;99839.06;;;9.11;100.00
9784;BME280;4931;44.874;-1.092;2024-03-08T04:19:55;99836.88;;;9.08;100.00
9784;BME280;4931;44.874;-1.092;2024-03-08T04:22:21;99841.50;;;9.13;100.00
9784;BME280;4931;44.874;-1.092;2024-03-08T04:24:46;99846.50;;;9.06;100.00
9784;BME280;4931;44.874;-1.092;2024-03-08T04:27:13;99855.00;;;9.04;100.00
9784;BME280;4931;44.874;-1.092;2024-03-08T04:29:39;99855.59;;;9.01;100.00
9784;BME280;4931;44.874;-1.092;2024-03-08T04:32:06;99853.16;;;9.00;100.00
9784;BME280;4931;44.874;-1.092;2024-03-08T04:34:32;99867.09;;;8.98;100.00
9784;BME280;4931;44.874;-1.092;2024-03-08T04:37:02;99862.69;;;9.02;100.00
9784;BME280;4931;44.874;-1.092;2024-03-08T04:39:29;99874.69;;;9.06;100.00
9784;BME280;4931;44.874;-1.092;2024-03-08T04:41:58;99873.06;;;9.05;100.00
9784;BME280;4931;44.874;-1.092;2024-03-08T04:44:24;99858.38;;;8.96;100.00
9784;BME280;4931;44.874;-1.092;2024-03-08T04:46:50;99868.38;;;9.06;100.00
9784;BME280;4931;44.874;-1.092;2024-03-08T04:49:16;99857.22;;;9.02;100.00
9784;BME280;4931;44.874;-1.092;2024-03-08T04:51:42;99863.50;;;9.03;100.00
9784;BME280;4931;44.874;-1.092;2024-03-08T04:54:07;99856.69;;;9.00;100.00
9784;BME280;4931;44.874;-1.092;2024-03-08T04:56:33;99855.34;;;8.97;100.00
9784;BME280;4931;44.874;-1.092;2024-03-08T04:58:58;99860.47;;;9.04;100.00
9784;BME280;4931;44.874;-1.092;2024-03-08T05:01:24;99853.97;;;9.00;100.00
9784;BME280;4931;44.874;-1.092;2024-03-08T05:03:50;99857.00;;;8.99;100.00
9784;BME280;4931;44.874;-1.092;2024-03-08T05:06:16;99861.28;;;9.05;100.00
9784;BME280;4931;44.874;-1.092;2024-03-08T05:08:42;99863.84;;;8.96;100.00
9784;BME280;4931;44.874;-1.092;2024-03-08T05:11:08;99864.41;;;8.93;100.00
9784;BME280;4931;44.874;-1.092;2024-03-08T05:13:34;99856.75;;;8.95;100.00
9784;BME280;4931;44.874;-1.092;2024-03-08T05:16:00;99866.16;;;8.84;100.00
9784;BME280;4931;44.874;-1.092;2024-03-08T05:18:25;99873.31;;;8.79;100.00
9784;BME280;4931;44.874;-1.092;2024-03-08T05:20:53;99865.94;;;8.80;100.00
9784;BME280;4931;44.874;-1.092;2024-03-08T05:23:19;99876.06;;;8.79;100.00
9784;BME280;4931;44.874;-1.092;2024-03-08T05:25:45;99878.50;;;8.81;100.00
9784;BME280;4931;44.874;-1.092;2024-03-08T05:28:13;99870.13;;;8.72;100.00
9784;BME280;4931;44.874;-1.092;2024-03-08T05:30:39;99872.31;;;8.70;100.00
9784;BME280;4931;44.874;-1.092;2024-03-08T05:33:05;99874.19;;;8.75;100.00
9784;BME280;4931;44.874;-1.092;2024-03-08T05:35:30;99865.69;;;8.76;100.00
9784;BME280;4931;44.874;-1.092;2024-03-08T05:37:56;99873.97;;;8.71;100.00
9784;BME280;4931;44.874;-1.092;2024-03-08T05:40:23;99871.47;;;8.75;100.00
9784;BME280;4931;44.874;-1.092;2024-03-08T05:42:49;99885.13;;;8.75;100.00
9784;BME280;4931;44.874;-1.092;2024-03-08T05:45:15;99888.72;;;8.70;100.00
9784;BME280;4931;44.874;-1.092;2024-03-08T05:47:40;99882.63;;;8.78;100.00
9784;BME280;4931;44.874;-1.092;2024-03-08T05:50:06;99881.28;;;8.76;100.00
9784;BME280;4931;44.874;-1.092;2024-03-08T05:52:35;99890.25;;;8.82;100.00
9784;BME280;4931;44.874;-1.092;2024-03-08T05:55:01;99884.31;;;8.74;100.00
9784;BME280;4931;44.874;-1.092;2024-03-08T05:57:28;99884.22;;;8.85;100.00
9784;BME280;4931;44.874;-1.092;2024-03-08T05:59:53;99870.53;;;8.85;100.00
9784;BME280;4931;44.874;-1.092;2024-03-08T06:02:19;99863.38;;;8.89;100.00
9784;BME280;4931;44.874;-1.092;2024-03-08T06:04:47;99859.66;;;8.79;100.00
9784;BME280;4931;44.874;-1.092;2024-03-08T06:07:13;99848.34;;;8.86;100.00
9784;BME280;4931;44.874;-1.092;2024-03-08T06:09:38;99837.94;;;8.88;100.00
9784;BME280;4931;44.874;-1.092;2024-03-08T06:12:04;99832.66;;;8.97;100.00
9784;BME280;4931;44.874;-1.092;2024-03-08T06:14:31;99819.50;;;8.99;100.00
9784;BME280;4931;44.874;-1.092;2024-03-08T06:16:57;99799.84;;;8.97;100.00
9784;BME280;4931;44.874;-1.092;2024-03-08T06:19:23;99800.41;;;8.94;100.00
9784;BME280;4931;44.874;-1.092;2024-03-08T06:21:48;99789.47;;;8.94;100.00
9784;BME280;4931;44.874;-1.092;2024-03-08T06:24:14;99794.94;;;8.94;100.00
9784;BME280;4931;44.874;-1.092;2024-03-08T06:26:40;99794.94;;;8.94;100.00
9784;BME280;4931;44.874;-1.092;2024-03-08T06:29:06;99795.97;;;8.98;100.00
9784;BME280;4931;44.874;-1.092;2024-03-08T06:31:34;99792.13;;;8.99;100.00
9784;BME280;4931;44.874;-1.092;2024-03-08T06:34:00;99791.69;;;8.92;100.00
9784;BME280;4931;44.874;-1.092;2024-03-08T06:36:25;99797.16;;;8.92;100.00
9784;BME280;4931;44.874;-1.092;2024-03-08T06:38:51;99793.44;;;8.83;100.00
9784;BME280;4931;44.874;-1.092;2024-03-08T06:41:16;99798.91;;;8.83;100.00
9784;BME280;4931;44.874;-1.092;2024-03-08T06:43:42;99800.75;;;8.87;100.00
9784;BME280;4931;44.874;-1.092;2024-03-08T06:46:09;99800.41;;;8.94;100.00
9784;BME280;4931;44.874;-1.092;2024-03-08T06:48:35;99805.44;;;8.87;100.00
9784;BME280;4931;44.874;-1.092;2024-03-08T06:51:02;99795.06;;;8.84;100.00
9784;BME280;4931;44.874;-1.092;2024-03-08T06:53:28;99788.78;;;8.83;100.00
9784;BME280;4931;44.874;-1.092;2024-03-08T06:55:53;99781.31;;;8.89;100.00
9784;BME280;4931;44.874;-1.092;2024-03-08T06:58:19;99789.03;;;8.87;100.00
9784;BME280;4931;44.874;-1.092;2024-03-08T07:00:45;99784.59;;;8.91;100.00
9784;BME280;4931;44.874;-1.092;2024-03-08T07:03:11;99774.25;;;8.88;100.00
9784;BME280;4931;44.874;-1.092;2024-03-08T07:05:42;99775.03;;;8.88;100.00
9784;BME280;4931;44.874;-1.092;2024-03-08T07:08:07;99779.91;;;8.91;100.00
9784;BME280;4931;44.874;-1.092;2024-03-08T07:10:33;99787.09;;;8.87;100.00
9784;BME280;4931;44.874;-1.092;2024-03-08T07:13:00;99799.97;;;8.87;100.00
9784;BME280;4931;44.874;-1.092;2024-03-08T07:15:27;99798.63;;;8.84;100.00
9784;BME280;4931;44.874;-1.092;2024-03-08T07:17:53;99808.50;;;9.04;100.00
9784;BME280;4931;44.874;-1.092;2024-03-08T07:20:19;99799.00;;;8.96;100.00
9784;BME280;4931;44.874;-1.092;2024-03-08T07:22:45;99793.31;;;8.93;100.00
9784;BME280;4931;44.874;-1.092;2024-03-08T07:25:16;99793.31;;;8.93;100.00
9784;BME280;4931;44.874;-1.092;2024-03-08T07:27:52;99791.97;;;8.90;100.00
9784;BME280;4931;44.874;-1.092;2024-03-08T07:30:19;99800.09;;;8.95;100.00
9784;BME280;4931;44.874;-1.092;2024-03-08T07:33:05;99785.63;;;8.95;100.00
9784;BME280;4931;44.874;-1.092;2024-03-08T07:35:32;99770.63;;;8.92;100.00
9784;BME280;4931;44.874;-1.092;2024-03-08T07:37:58;99795.13;;;9.22;100.00
9784;BME280;4931;44.874;-1.092;2024-03-08T07:40:25;99798.34;;;9.05;100.00
9784;BME280;4931;44.874;-1.092;2024-03-08T07:42:51;99791.34;;;8.99;100.00
9784;BME280;4931;44.874;-1.092;2024-03-08T07:45:16;99790.75;;;9.02;100.00
9784;BME280;4931;44.874;-1.092;2024-03-08T07:47:42;99776.19;;;9.06;100.00
9784;BME280;4931;44.874;-1.092;2024-03-08T07:50:08;99777.81;;;9.07;100.00
9784;BME280;4931;44.874;-1.092;2024-03-08T07:52:34;99768.06;;;9.01;100.00
9784;BME280;4931;44.874;-1.092;2024-03-08T07:55:02;99768.84;;;9.02;100.00
9784;BME280;4931;44.874;-1.092;2024-03-08T07:57:29;99762.59;;;9.01;100.00
9784;BME280;4931;44.874;-1.092;2024-03-08T07:59:55;99756.00;;;9.02;100.00
9784;BME280;4931;44.874;-1.092;2024-03-08T08:02:20;99759.78;;;9.06;100.00
9784;BME280;4931;44.874;-1.092;2024-03-08T08:04:46;99752.31;;;9.12;100.00
9784;BME280;4931;44.874;-1.092;2024-03-08T08:07:11;99745.50;;;9.09;100.00
9784;BME280;4931;44.874;-1.092;2024-03-08T08:09:37;99745.66;;;9.18;100.00
9784;BME280;4931;44.874;-1.092;2024-03-08T08:12:03;99748.59;;;9.22;100.00
9784;BME280;4931;44.874;-1.092;2024-03-08T08:14:29;99740.50;;;9.17;100.00
9784;BME280;4931;44.874;-1.092;2024-03-08T08:16:55;99744.53;;;9.19;100.00
9784;BME280;4931;44.874;-1.092;2024-03-08T08:19:22;99754.19;;;9.17;100.00
9784;BME280;4931;44.874;-1.092;2024-03-08T08:21:48;99759.03;;;9.20;100.00
9784;BME280;4931;44.874;-1.092;2024-03-08T08:24:14;99754.19;;;9.17;100.00
9784;BME280;4931;44.874;-1.092;2024-03-08T08:26:40;99762.88;;;9.19;100.00
9784;BME280;4931;44.874;-1.092;2024-03-08T08:29:07;99751.44;;;9.17;100.00
9784;BME280;4931;44.874;-1.092;2024-03-08T08:31:32;99753.34;;;9.16;100.00
9784;BME280;4931;44.874;-1.092;2024-03-08T08:33:58;99756.16;;;9.11;100.00
9784;BME280;4931;44.874;-1.092;2024-03-08T08:36:25;99763.78;;;9.14;100.00
9784;BME280;4931;44.874;-1.092;2024-03-08T08:38:50;99757.78;;;9.12;100.00
9784;BME280;4931;44.874;-1.092;2024-03-08T08:41:19;99761.84;;;9.14;100.00
9784;BME280;4931;44.874;-1.092;2024-03-08T08:43:44;99765.91;;;9.17;100.00
9784;BME280;4931;44.874;-1.092;2024-03-08T08:46:10;99756.59;;;9.18;100.00
9784;BME280;4931;44.874;-1.092;2024-03-08T08:48:39;99769.38;;;9.23;100.00
9784;BME280;4931;44.874;-1.092;2024-03-08T08:51:11;99775.75;;;9.37;100.00
9784;BME280;4931;44.874;-1.092;2024-03-08T08:53:38;99776.34;;;9.34;100.00
9784;BME280;4931;44.874;-1.092;2024-03-08T08:56:06;99772.28;;;9.32;100.00
9784;BME280;4931;44.874;-1.092;2024-03-08T08:58:33;99776.34;;;9.34;100.00
9784;BME280;4931;44.874;-1.092;2024-03-08T09:00:58;99771.13;;;9.38;100.00
9784;BME280;4931;44.874;-1.092;2024-03-08T09:03:25;99766.50;;;9.33;100.00
9784;BME280;4931;44.874;-1.092;2024-03-08T09:05:52;99767.84;;;9.36;100.00
9784;BME280;4931;44.874;-1.092;2024-03-08T09:08:18;99766.22;;;9.35;100.00
9784;BME280;4931;44.874;-1.092;2024-03-08T09:10:44;99781.75;;;9.39;100.00
9784;BME280;4931;44.874;-1.092;2024-03-08T09:13:09;99774.59;;;9.43;100.00
9784;BME280;4931;44.874;-1.092;2024-03-08T09:15:36;99758.16;;;9.43;100.00
9784;BME280;4931;44.874;-1.092;2024-03-08T09:18:06;99751.88;;;9.43;100.00
9784;BME280;4931;44.874;-1.092;2024-03-08T09:20:31;99749.28;;;9.52;100.00
9784;BME280;4931;44.874;-1.092;2024-03-08T09:22:57;99735.19;;;9.58;100.00
9784;BME280;4931;44.874;-1.092;2024-03-08T09:25:23;99734.91;;;9.60;100.00
9784;BME280;4931;44.874;-1.092;2024-03-08T09:27:48;99728.91;;;9.58;100.00
9784;BME280;4931;44.874;-1.092;2024-03-08T09:30:15;99738.75;;;9.59;100.00
9784;BME280;4931;44.874;-1.092;2024-03-08T09:32:41;99734.91;;;9.60;100.00
9784;BME280;4931;44.874;-1.092;2024-03-08T09:35:08;99738.84;;;9.54;100.00
9784;BME280;4931;44.874;-1.092;2024-03-08T09:37:34;99733.22;;;9.64;100.00
9784;BME280;4931;44.874;-1.092;2024-03-08T09:40:00;99721.34;;;9.69;100.00
9784;BME280;4931;44.874;-1.092;2024-03-08T09:42:30;99727.94;;;9.68;100.00
9784;BME280;4931;44.874;-1.092;2024-03-08T09:44:57;99725.56;;;9.61;100.00
9784;BME280;4931;44.874;-1.092;2024-03-08T09:47:24;99719.22;;;9.66;100.00
9784;BME280;4931;44.874;-1.092;2024-03-08T09:49:54;99714.84;;;9.64;100.00
9784;BME280;4931;44.874;-1.092;2024-03-08T09:52:20;99712.44;;;9.77;100.00
9784;BME280;4931;44.874;-1.092;2024-03-08T09:54:46;99709.59;;;9.68;100.00
9784;BME280;4931;44.874;-1.092;2024-03-08T09:57:12;99702.47;;;9.67;100.00
9784;BME280;4931;44.874;-1.092;2024-03-08T09:59:37;99701.28;;;9.73;100.00
9784;BME280;4931;44.874;-1.092;2024-03-08T10:02:03;99700.47;;;9.73;100.00
9784;BME280;4931;44.874;-1.092;2024-03-08T10:04:29;99699.66;;;9.72;100.00
9784;BME280;4931;44.874;-1.092;2024-03-08T10:06:58;99694.69;;;9.74;100.00
9784;BME280;4931;44.874;-1.092;2024-03-08T10:09:25;99689.56;;;9.87;100.00
9784;BME280;4931;44.874;-1.092;2024-03-08T10:11:58;99672.91;;;9.83;100.00
9784;BME280;4931;44.874;-1.092;2024-03-08T10:14:27;99660.75;;;9.89;100.00
9784;BME280;4931;44.874;-1.092;2024-03-08T10:16:53;99640.84;;;9.97;100.00
9784;BME280;4931;44.874;-1.092;2024-03-08T10:19:19;99627.66;;;9.86;100.00
9784;BME280;4931;44.874;-1.092;2024-03-08T10:21:51;99625.84;;;9.95;100.00
9784;BME280;4931;44.874;-1.092;2024-03-08T10:24:22;99619.78;;;9.98;100.00
9784;BME280;4931;44.874;-1.092;2024-03-08T10:27:03;99599.97;;;10.01;100.00
9784;BME280;4931;44.874;-1.092;2024-03-08T10:29:31;99599.34;;;10.04;100.00
9784;BME280;4931;44.874;-1.092;2024-03-08T10:31:56;99591.13;;;10.04;100.00
9784;BME280;4931;44.874;-1.092;2024-03-08T10:34:23;99593.78;;;10.09;100.00
9784;BME280;4931;44.874;-1.092;2024-03-08T10:36:51;99575.50;;;10.19;100.00
9784;BME280;4931;44.874;-1.092;2024-03-08T10:39:23;99567.78;;;10.07;100.00
9784;BME280;4931;44.874;-1.092;2024-03-08T10:41:53;99550.56;;;10.06;100.00
9784;BME280;4931;44.874;-1.092;2024-03-08T10:52:15;99514.59;;;10.36;100.00
9784;BME280;4931;44.874;-1.092;2024-03-08T10:54:43;99502.19;;;10.38;100.00
9784;BME280;4931;44.874;-1.092;2024-03-08T10:57:09;99487.16;;;10.50;100.00
9784;BME280;4931;44.874;-1.092;2024-03-08T10:59:36;99484.00;;;10.42;100.00
9784;BME280;4931;44.874;-1.092;2024-03-08T11:02:02;99479.28;;;10.57;100.00
9784;BME280;4931;44.874;-1.092;2024-03-08T11:04:31;99475.94;;;10.60;100.00
9784;BME280;4931;44.874;-1.092;2024-03-08T11:07:02;99460.97;;;10.66;100.00
9784;BME280;4931;44.874;-1.092;2024-03-08T11:09:35;99443.38;;;10.67;100.00
9784;BME280;4931;44.874;-1.092;2024-03-08T11:14:47;99432.41;;;10.67;100.00
9784;BME280;4931;44.874;-1.092;2024-03-08T11:20:10;99458.41;;;10.70;100.00
9784;BME280;4931;44.874;-1.092;2024-03-08T11:22:51;99463.78;;;10.75;100.00
9784;BME280;4931;44.874;-1.092;2024-03-08T11:25:41;99467.06;;;10.86;100.00
9784;BME280;4931;44.874;-1.092;2024-03-08T11:28:13;99462.75;;;10.93;100.00
9784;BME280;4931;44.874;-1.092;2024-03-08T11:30:46;99466.31;;;10.94;100.00
9784;BME280;4931;44.874;-1.092;2024-03-08T11:33:14;99467.44;;;10.93;100.00
9784;BME280;4931;44.874;-1.092;2024-03-08T11:35:42;99441.00;;;10.97;100.00
9784;BME280;4931;44.874;-1.092;2024-03-08T11:38:08;99412.91;;;11.00;100.00
9784;BME280;4931;44.874;-1.092;2024-03-08T11:40:35;99405.19;;;11.02;100.00
9784;BME280;4931;44.874;-1.092;2024-03-08T11:43:01;99388.25;;;11.09;100.00
9784;BME280;4931;44.874;-1.092;2024-03-08T11:45:32;99382.25;;;10.98;100.00
9784;BME280;4931;44.874;-1.092;2024-03-08T11:47:59;99392.63;;;11.10;100.00
9784;BME280;4931;44.874;-1.092;2024-03-08T11:50:25;99359.38;;;11.11;100.00
9784;BME280;4931;44.874;-1.092;2024-03-08T11:52:51;99367.03;;;10.92;100.00
9784;BME280;4931;44.874;-1.092;2024-03-08T11:55:17;99361.28;;;11.02;100.00
9784;BME280;4931;44.874;-1.092;2024-03-08T11:57:44;99359.19;;;11.08;100.00
9784;BME280;4931;44.874;-1.092;2024-03-08T12:00:19;99358.41;;;11.07;100.00
9784;BME280;4931;44.874;-1.092;2024-03-08T12:03:04;99343.06;;;11.06;100.00
9784;BME280;4931;44.874;-1.092;2024-03-08T12:05:30;99343.59;;;11.26;100.00
9784;BME280;4931;44.874;-1.092;2024-03-08T12:08:00;99328.09;;;11.30;100.00
9784;BME280;4931;44.874;-1.092;2024-03-08T12:10:25;99321.22;;;11.59;100.00
9784;BME280;4931;44.874;-1.092;2024-03-08T12:12:53;99315.06;;;11.53;100.00
9784;BME280;4931;44.874;-1.092;2024-03-08T12:15:20;99324.94;;;11.63;100.00
9784;BME280;4931;44.874;-1.092;2024-03-08T12:17:50;99326.84;;;11.45;100.00
9784;BME280;4931;44.874;-1.092;2024-03-08T12:20:18;99318.94;;;11.52;100.00
9784;BME280;4931;44.874;-1.092;2024-03-08T12:22:47;99317.78;;;11.44;100.00
9784;BME280;4931;44.874;-1.092;2024-03-08T12:25:13;99311.69;;;11.65;100.00
9784;BME280;4931;44.874;-1.092;2024-03-08T12:27:43;99295.66;;;11.41;100.00
9784;BME280;4931;44.874;-1.092;2024-03-08T12:30:18;99309.72;;;11.48;100.00
9784;BME280;4931;44.874;-1.092;2024-03-08T12:32:56;99309.41;;;11.50;100.00
9784;BME280;4931;44.874;-1.092;2024-03-08T12:35:23;99296.31;;;11.38;100.00
9784;BME280;4931;44.874;-1.092;2024-03-08T12:37:54;99307.47;;;11.41;100.00
9784;BME280;4931;44.874;-1.092;2024-03-08T12:40:31;99319.13;;;11.56;100.00
9784;BME280;4931;44.874;-1.092;2024-03-08T12:42:57;99345.75;;;11.55;100.00
9784;BME280;4931;44.874;-1.092;2024-03-08T12:45:24;99360.16;;;11.61;100.00
9784;BME280;4931;44.874;-1.092;2024-03-08T12:47:54;99356.59;;;11.52;100.00
9784;BME280;4931;44.874;-1.092;2024-03-08T12:50:23;99352.88;;;11.65;100.00
9784;BME280;4931;44.874;-1.092;2024-03-08T12:52:50;99346.28;;;11.66;100.00
9784;BME280;4931;44.874;-1.092;2024-03-08T12:55:16;99350.63;;;11.58;100.00
9784;BME280;4931;44.874;-1.092;2024-03-08T12:57:43;99353.03;;;11.60;100.00
9784;BME280;4931;44.874;-1.092;2024-03-08T13:00:09;99327.34;;;11.73;100.00
9784;BME280;4931;44.874;-1.092;2024-03-08T13:02:47;99318.97;;;11.87;100.00
9784;BME280;4931;44.874;-1.092;2024-03-08T13:05:13;99276.13;;;11.86;100.00
9784;BME280;4931;44.874;-1.092;2024-03-08T13:07:41;99246.34;;;12.15;100.00
9784;BME280;4931;44.874;-1.092;2024-03-08T13:10:12;99231.53;;;11.98;100.00
9784;BME280;4931;44.874;-1.092;2024-03-08T13:12:41;99234.56;;;12.05;100.00
9784;BME280;4931;44.874;-1.092;2024-03-08T13:15:07;99221.75;;;12.27;100.00
9784;BME280;4931;44.874;-1.092;2024-03-08T13:17:34;99229.88;;;12.15;100.00
9784;BME280;4931;44.874;-1.092;2024-03-08T13:19:59;99253.13;;;12.26;100.00